AirNav   Everest Fuels
 
 1056 users online  

E81 Superior Municipal Airport
Superior, Arizona, USA

GOING TO SUPERIOR?


FAA INFORMATION EFFECTIVE 09 SEPTEMBER 2021

Location

FAA Identifier: E81
Lat/Long: 33-16-40.2020N 111-07-37.4340W
33-16.670033N 111-07.623900W
33.2778339,-111.1270650
(estimated)
Elevation: 2646 ft. / 807 m (estimated)
Variation: 12E (1985)
From city: 2 miles SW of SUPERIOR, AZ
Time zone: UTC -7 (year round; does not observe DST)
Zip code: 85273

Airport Operations

Airport use: Open to the public
Activation date: 04/1945
Control tower: no
ARTCC: ALBUQUERQUE CENTER
FSS: PRESCOTT FLIGHT SERVICE STATION
NOTAMs facility: PRC (NOTAM-D service available)
Attendance: UNATNDD
Wind indicator: yes
Segmented circle: no

Airport Communications

CTAF/UNICOM: 122.95

Nearby radio navigation aids

VOR radial/distance  VOR name  Freq  Var
IWAr080/26.3WILLIE VORTAC113.3013E

Airport Services

Airframe service: NONE
Powerplant service: NONE
Bottled oxygen: NONE
Bulk oxygen: NONE

Runway Information

Runway 4/22

Dimensions: 3250 x 75 ft. / 991 x 23 m
Surface: gravel, in excellent condition
EAST 2000 FT OF RWY, EXCELLENT COND; WEST 1000 FT OF RWY, GOOD TO FAIR.
Operational restrictions: MTN 4375 FT MSL LCTD 9,000 FT WEST OF RY 04.
RUNWAY 4  RUNWAY 22
Traffic pattern: leftleft
Markings: nonenone
Runway end identifier lights: nono
Obstructions: none6 ft. tree, 30 ft. from runway, 72 ft. right of centerline, 5:1 slope to clear

Airport Ownership and Management from official FAA records

Ownership: Publicly-owned
Owner: TOWN OF SUPERIOR
PO BOX 218
SUPERIOR, AZ 85173
Phone 520-689-5752
Manager: TODD PRYOR
PO BOX 218
SUPERIOR, AZ 85173
Phone 520-689-5752

Airport Operational Statistics

Aircraft operations: 200/year *
100% transient general aviation
* for 12-month period ending 02 April 2020

Additional Remarks

OBSTNS BRUSH NE RWY; TERRAIN NE; HILLS & MTN SSW THRU SW OF ARPT.
FOR CD CTC ALBUQUERQUE ARTCC AT 505-856-4861.
GATE CODE 2646.
AMGR RECOMMENDS LNDG UPHILL TO THE NE.
RWY 04/22 BRUSH & TREES TO A HEIGHT OF 12 FT, 75 FT FM CNTRLN BOTH SIDES.
EMERGENCY PHONE 520-689-5254 (POLICE).
LIVESTOCK ON ARPT.
RUNWAY 4 THRESHOLD MARKED BY PAINTED RUBBER TIRES, RUNWAY 22 THRESHOLD UNMARKED.

Instrument Procedures

There are no published instrument procedures at E81.

Some nearby airports with instrument procedures:

P13 - San Carlos Apache Airport (23 nm E)
P08 - Coolidge Municipal Airport (25 nm SW)
KIWA - Phoenix-Mesa Gateway Airport (27 nm W)
KFFZ - Falcon Field Airport (32 nm W)
KCHD - Chandler Municipal Airport (34 nm W)
 
Loc | Ops | Rwys | IFR | FBO | Links
Com | Nav | Svcs | Stats | Notes
Area around E81 (Superior Municipal Airport)
 
Road maps at: MapQuest Bing Google
 
Aerial photo
WARNING: Photo may not be current or correct
Aerial photo of E81 (Superior Municipal Airport)
Photo by Brandon Smith
Photo taken 11-Sep-2010
looking northeast.

Do you have a better or more recent aerial photo of Superior Municipal Airport that you would like to share? If so, please send us your photo.

 
Sectional chart

 
Airport distance calculator
Flying to Superior Municipal Airport? Find the distance to fly.

From to E81

Sunrise and sunset
Times for 28-Sep-2021
 Local
(UTC-7)
 Zulu
(UTC)
Morning civil twilight05:5312:53
Sunrise06:1813:18
Sunset18:1301:13
Evening civil twilight18:3701:37

Current date and time
Zulu (UTC)  29-Sep-2021 00:32:09
Local (UTC-7)  28-Sep-2021 17:32:09
 
METAR
KP08 
25nm SW 
290015Z AUTO 22006KT 10SM BKN080 BKN095 32/13 A2978 RMK AO2
KIWA 
26nm W 
282355Z 22010KT 10SM VCPO SCT090 32/13 A2978
KFFZ 
32nm W 
282354Z 24005KT 10SM CLR 31/14 A2976 RMK AO2 SLP055 T03110139 10311 20272 56017 $
KCHD 
35nm W 
282347Z 20010KT 10SM BKN080 33/13 A2976
KCGZ 
38nm SW 
282356Z AUTO 23011KT 10SM CLR 32/11 A2978 RMK AO2 SLP069 6//// T03220111 10328 20283 56016
KA39 
43nm SW 
290015Z AUTO 17007KT 10SM SCT085 SCT120 31/13 A2980 RMK AO2
KSDL 
44nm NW 
282353Z AUTO VRB03KT 10SM SCT075 31/13 A2978 RMK AO2 SLP061 T03060133 10311 20272 56018
KMZJ 
47nm S 
290010Z AUTO 21007KT 10SM 31/10 A2982 RMK AO2
KPHX 
47nm W 
282351Z 16005KT 10SM BKN075 BKN250 32/13 A2973 RMK AO2 SLP049 T03220128 10328 20289 56019
TAF
KIWA 
26nm W 
281724Z 2818/2918 17007KT P6SM FEW050 FM282200 22008KT P6SM FEW060 FM290300 14006KT P6SM FEW050 FEW120 SCT250
NOTAMs
Click for the latest NOTAMs
NOTAMs are issued by the DoD/FAA and will open in a separate window not controlled by AirNav.

 

 
 

Would you like to see your business listed on this page?

 If your business provides an interesting product or service to pilots, flight crews, aircraft, or users of the Superior Municipal Airport, you should consider listing it here.  To start the listing process, click on the button below
 
Add a business
 

Other Pages about Superior Municipal Airport

Update a link
 
Copyright © AirNav, LLC. All rights reserved. Privacy Policy  Contact